createdAt,value
2022-11-24T00:01:05.623Z,13.93
2022-11-24T00:03:32.305Z,16.05
2022-11-24T00:06:10.770Z,16.67
2022-11-24T00:08:38.248Z,10.77
2022-11-24T00:11:06.401Z,20.48
2022-11-24T00:13:33.691Z,13.65
2022-11-24T00:16:15.483Z,22.08
2022-11-24T00:18:43.348Z,15.10
2022-11-24T00:21:10.045Z,13.90
2022-11-24T00:23:36.895Z,12.90
2022-11-24T00:26:05.706Z,17.30
2022-11-24T00:28:33.627Z,17.38
2022-11-24T00:31:00.600Z,14.27
2022-11-24T00:33:27.191Z,16.13
2022-11-24T00:35:57.730Z,17.27
2022-11-24T00:38:24.577Z,16.90
2022-11-24T00:40:52.078Z,17.48
2022-11-24T00:43:19.094Z,15.85
2022-11-24T00:45:45.555Z,15.00
2022-11-24T00:48:12.155Z,21.38
2022-11-24T00:50:38.743Z,14.60
2022-11-24T00:53:05.239Z,17.30
2022-11-24T00:55:31.715Z,22.98
2022-11-24T00:57:58.219Z,19.90
2022-11-24T01:00:24.750Z,18.95
2022-11-24T01:02:52.428Z,16.63
2022-11-24T01:05:19.191Z,12.13
2022-11-24T01:07:46.859Z,11.52
2022-11-24T01:10:13.362Z,20.90
2022-11-24T01:12:39.815Z,13.45
2022-11-24T01:15:06.691Z,17.45
2022-11-24T01:17:33.165Z,14.43
2022-11-24T01:19:59.623Z,17.88
2022-11-24T01:22:27.337Z,14.55
2022-11-24T01:24:53.799Z,14.23
2022-11-24T01:27:20.254Z,14.23
2022-11-24T01:29:46.731Z,16.88
2022-11-24T01:32:13.199Z,11.90
2022-11-24T01:34:39.682Z,12.65
2022-11-24T01:37:06.354Z,16.58
2022-11-24T01:39:33.047Z,17.00
2022-11-24T01:42:02.665Z,19.10
2022-11-24T01:44:30.602Z,15.68
2022-11-24T01:47:36.369Z,14.10
2022-11-24T01:50:03.733Z,16.13
2022-11-24T01:52:38.317Z,15.65
2022-11-24T01:55:11.260Z,13.85
2022-11-24T01:57:44.100Z,14.35
2022-11-24T02:00:13.106Z,16.20
2022-11-24T02:02:47.413Z,14.68
2022-11-24T02:05:21.759Z,15.48
2022-11-24T02:07:48.648Z,12.10
2022-11-24T02:10:16.938Z,16.50
2022-11-24T02:12:46.492Z,14.27
2022-11-24T02:15:17.170Z,12.63
2022-11-24T02:17:44.078Z,17.00
2022-11-24T02:20:11.706Z,15.50
2022-11-24T02:22:47.396Z,13.30
2022-11-24T02:25:25.567Z,18.27
2022-11-24T02:27:54.181Z,21.05
2022-11-24T02:30:20.887Z,17.38
2022-11-24T02:32:47.400Z,14.45
2022-11-24T02:35:14.362Z,18.90
2022-11-24T02:37:40.864Z,14.15
2022-11-24T02:40:08.133Z,14.80
2022-11-24T02:42:41.790Z,12.85
2022-11-24T02:45:09.334Z,18.02
2022-11-24T02:47:35.783Z,16.50
2022-11-24T02:50:02.286Z,18.70
2022-11-24T02:52:28.726Z,19.00
2022-11-24T02:54:55.198Z,18.90
2022-11-24T02:57:22.620Z,17.23
2022-11-24T02:59:49.100Z,20.88
2022-11-24T03:02:15.590Z,15.30
2022-11-24T03:04:42.095Z,19.05
2022-11-24T03:07:09.621Z,16.65
2022-11-24T03:09:36.152Z,18.05
2022-11-24T03:12:02.640Z,18.35
2022-11-24T03:14:29.083Z,18.13
2022-11-24T03:16:55.551Z,18.92
2022-11-24T03:19:21.999Z,18.13
2022-11-24T03:21:48.522Z,19.23
2022-11-24T03:24:15.015Z,22.35
2022-11-24T03:26:42.027Z,25.75
2022-11-24T03:29:09.010Z,16.35
2022-11-24T03:31:35.606Z,16.55
2022-11-24T03:34:02.200Z,18.52
2022-11-24T03:36:28.653Z,16.08
2022-11-24T03:38:55.091Z,20.13
2022-11-24T03:41:21.702Z,17.48
2022-11-24T03:43:48.162Z,13.05
2022-11-24T03:46:14.712Z,15.85
2022-11-24T03:48:41.473Z,16.95
2022-11-24T03:51:08.150Z,18.92
2022-11-24T03:53:34.744Z,13.32
2022-11-24T03:56:01.936Z,16.85
2022-11-24T03:58:28.911Z,17.08
2022-11-24T04:00:55.999Z,15.07
2022-11-24T04:03:23.204Z,21.42
2022-11-24T04:05:49.848Z,20.77
2022-11-24T04:08:17.011Z,16.33
2022-11-24T04:10:43.659Z,19.13
2022-11-24T04:13:12.891Z,20.95
2022-11-24T04:15:40.794Z,14.65
2022-11-24T04:18:08.139Z,17.65
2022-11-24T04:20:34.751Z,17.70
2022-11-24T04:23:01.504Z,21.73
2022-11-24T04:25:28.340Z,25.23
2022-11-24T04:27:55.510Z,14.82
2022-11-24T04:30:23.878Z,16.95
2022-11-24T04:32:50.651Z,21.27
2022-11-24T04:35:17.135Z,21.85
2022-11-24T04:37:43.574Z,24.20
2022-11-24T04:40:11.010Z,18.80
2022-11-24T04:42:37.487Z,17.10
2022-11-24T04:45:05.732Z,17.35
2022-11-24T04:47:32.154Z,19.60
2022-11-24T04:49:58.644Z,21.55
2022-11-24T04:52:25.473Z,17.98
2022-11-24T04:54:52.167Z,14.85
2022-11-24T04:57:26.115Z,15.75
2022-11-24T04:59:53.224Z,15.52
2022-11-24T05:02:19.843Z,19.20
2022-11-24T05:04:46.827Z,14.30
2022-11-24T05:07:18.396Z,19.02
2022-11-24T05:10:04.602Z,18.40
2022-11-24T05:12:31.347Z,15.98
2022-11-24T05:14:59.174Z,19.58
2022-11-24T05:17:32.141Z,21.42
2022-11-24T05:19:58.915Z,16.95
2022-11-24T05:22:26.002Z,21.63
2022-11-24T05:24:52.551Z,23.35
2022-11-24T05:27:19.062Z,19.00
2022-11-24T05:29:45.597Z,22.40
2022-11-24T05:32:12.073Z,22.08
2022-11-24T05:34:38.642Z,23.08
2022-11-24T05:37:05.094Z,20.15
2022-11-24T05:39:37.884Z,23.30
2022-11-24T05:42:25.730Z,20.63
2022-11-24T05:44:52.641Z,25.30
2022-11-24T05:47:19.143Z,18.60
2022-11-24T05:49:45.566Z,25.08
2022-11-24T05:52:12.215Z,18.08
2022-11-24T05:54:38.652Z,23.73
2022-11-24T05:57:05.084Z,16.38
2022-11-24T05:59:31.596Z,21.70
2022-11-24T06:01:58.094Z,25.15
2022-11-24T06:04:24.582Z,21.88
2022-11-24T06:06:51.005Z,21.67
2022-11-24T06:09:17.515Z,22.80
2022-11-24T06:11:43.996Z,19.65
2022-11-24T06:14:11.475Z,19.85
2022-11-24T06:16:38.629Z,21.27
2022-11-24T06:19:05.248Z,17.48
2022-11-24T06:21:32.137Z,19.10
2022-11-24T06:23:58.755Z,24.80
2022-11-24T06:26:25.189Z,24.05
2022-11-24T06:28:51.636Z,22.50
2022-11-24T06:31:18.589Z,17.35
2022-11-24T06:33:45.237Z,19.30
2022-11-24T06:36:13.431Z,20.98
2022-11-24T06:38:39.891Z,26.90
2022-11-24T06:41:09.455Z,22.00
2022-11-24T06:46:02.691Z,20.33
2022-11-24T06:48:29.378Z,20.10
2022-11-24T06:51:00.318Z,22.60
2022-11-24T06:53:27.055Z,22.20
2022-11-24T06:55:53.596Z,18.48
2022-11-24T06:58:20.032Z,17.33
2022-11-24T07:00:46.510Z,25.95
2022-11-24T07:03:16.033Z,25.85
2022-11-24T07:05:43.826Z,18.77
2022-11-24T07:08:16.180Z,21.33
2022-11-24T07:10:44.162Z,32.13
2022-11-24T07:13:10.699Z,21.50
2022-11-24T07:15:37.132Z,28.52
2022-11-24T07:18:03.666Z,23.17
2022-11-24T07:20:30.139Z,21.33
2022-11-24T07:22:57.380Z,24.33
2022-11-24T07:25:26.915Z,21.15
2022-11-24T07:27:59.943Z,19.95
2022-11-24T07:30:27.251Z,18.10
2022-11-24T07:33:01.079Z,18.42
2022-11-24T07:35:28.143Z,19.92
2022-11-24T07:37:56.290Z,19.60
2022-11-24T07:40:23.316Z,22.95
2022-11-24T07:42:49.848Z,14.20
2022-11-24T07:45:16.374Z,12.35
2022-11-24T07:47:42.827Z,15.48
2022-11-24T07:50:10.275Z,15.30
2022-11-24T07:52:37.400Z,14.65
2022-11-24T07:55:05.038Z,17.20
2022-11-24T07:57:31.445Z,14.63
2022-11-24T07:59:57.968Z,15.82
2022-11-24T08:02:24.480Z,11.32
2022-11-24T08:04:51.276Z,17.20
2022-11-24T08:07:17.712Z,12.27
2022-11-24T08:09:44.158Z,15.43
2022-11-24T08:12:10.600Z,11.98
2022-11-24T08:14:37.243Z,10.65
2022-11-24T08:17:03.848Z,16.00
2022-11-24T08:19:32.130Z,16.98
2022-11-24T08:21:58.519Z,10.95
2022-11-24T08:24:24.932Z,12.70
2022-11-24T08:26:51.322Z,10.40
2022-11-24T08:29:17.791Z,13.77
2022-11-24T08:31:44.302Z,14.20
2022-11-24T08:34:10.800Z,13.35
2022-11-24T08:36:37.231Z,14.00
2022-11-24T08:39:03.646Z,9.68
2022-11-24T08:41:30.615Z,9.55
2022-11-24T08:43:57.323Z,14.68
2022-11-24T08:46:24.142Z,11.32
2022-11-24T08:48:54.070Z,15.75
2022-11-24T08:51:23.600Z,19.52
2022-11-24T08:53:54.726Z,12.68
2022-11-24T08:56:22.312Z,12.95
2022-11-24T08:58:48.851Z,14.75
2022-11-24T09:01:16.662Z,13.82
2022-11-24T09:03:51.275Z,16.13
2022-11-24T09:06:27.132Z,20.70
2022-11-24T09:08:54.207Z,15.95
2022-11-24T09:11:21.382Z,12.02
2022-11-24T09:13:48.232Z,13.50
2022-11-24T09:16:20.862Z,11.65
2022-11-24T09:18:47.782Z,13.50
2022-11-24T09:21:16.426Z,9.15
2022-11-24T09:23:43.187Z,14.95
2022-11-24T09:26:14.731Z,16.27
2022-11-24T09:28:41.579Z,15.02
2022-11-24T09:31:11.186Z,14.60
2022-11-24T09:33:38.836Z,13.57
2022-11-24T09:36:06.034Z,13.05
2022-11-24T09:38:32.992Z,11.77
2022-11-24T09:41:31.748Z,11.25
2022-11-24T09:44:22.489Z,10.32
2022-11-24T09:47:26.659Z,11.60
2022-11-24T09:50:04.331Z,12.07
2022-11-24T09:52:49.029Z,10.55
2022-11-24T09:55:28.817Z,13.38
2022-11-24T10:00:40.410Z,15.68
2022-11-24T10:03:14.892Z,14.02
2022-11-24T10:05:42.056Z,14.13
2022-11-24T10:08:38.321Z,13.63
2022-11-24T10:11:13.869Z,16.20
2022-11-24T10:14:04.820Z,11.70
2022-11-24T10:17:11.131Z,15.70
2022-11-24T10:19:52.352Z,16.67
2022-11-24T10:22:38.379Z,11.25
2022-11-24T10:25:26.559Z,15.23
2022-11-24T10:28:00.091Z,14.88
2022-11-24T10:30:27.033Z,14.15
2022-11-24T10:32:58.042Z,13.63
2022-11-24T10:35:30.790Z,16.05
2022-11-24T10:38:29.594Z,11.98
2022-11-24T10:41:03.330Z,13.68
2022-11-24T10:43:29.797Z,10.93
2022-11-24T10:46:09.351Z,14.80
2022-11-24T10:48:47.009Z,10.23
2022-11-24T10:51:41.464Z,9.13
2022-11-24T10:54:20.173Z,10.85
2022-11-24T10:56:47.989Z,10.10
2022-11-24T10:59:21.388Z,11.68
2022-11-24T11:01:47.925Z,12.05
2022-11-24T11:04:20.454Z,15.30
2022-11-24T11:06:47.034Z,12.45
2022-11-24T11:09:13.395Z,10.80
2022-11-24T11:11:40.004Z,13.32
2022-11-24T11:14:07.868Z,7.93
2022-11-24T11:16:42.526Z,12.55
2022-11-24T11:19:54.266Z,12.38
2022-11-24T11:22:25.041Z,14.63
2022-11-24T11:25:04.106Z,12.75
2022-11-24T11:27:30.522Z,9.60
2022-11-24T11:35:50.347Z,12.95
2022-11-24T11:38:17.067Z,17.52
2022-11-24T11:40:43.821Z,12.93
2022-11-24T11:43:19.157Z,11.18
2022-11-24T11:45:46.248Z,10.82
2022-11-24T11:48:27.582Z,13.05
2022-11-24T11:51:22.253Z,12.90
2022-11-24T11:53:55.228Z,15.57
2022-11-24T11:56:28.466Z,13.13
2022-11-24T11:59:12.715Z,12.35
2022-11-24T12:01:57.394Z,8.73
2022-11-24T12:04:57.996Z,10.30
2022-11-24T12:07:34.660Z,11.95
2022-11-24T12:10:07.232Z,11.30
2022-11-24T12:13:03.576Z,12.82
2022-11-24T12:15:40.984Z,9.93
2022-11-24T12:18:57.642Z,11.95
2022-11-24T12:21:26.861Z,11.57
2022-11-24T12:24:17.945Z,9.60
2022-11-24T12:27:06.149Z,15.25
2022-11-24T12:30:00.370Z,9.48
2022-11-24T12:32:37.220Z,12.93
2022-11-24T12:35:23.888Z,10.77
2022-11-24T12:38:19.462Z,15.40
2022-11-24T12:41:39.936Z,12.50
2022-11-24T12:43:53.452Z,12.07
2022-11-24T12:46:29.186Z,11.13
2022-11-24T12:49:31.627Z,10.70
2022-11-24T12:52:03.604Z,9.60
2022-11-24T12:54:36.945Z,8.95
2022-11-24T12:57:12.273Z,11.55
2022-11-24T12:59:46.179Z,13.40
2022-11-24T13:02:18.549Z,13.13
2022-11-24T13:04:52.469Z,12.40
2022-11-24T13:07:22.601Z,9.82
2022-11-24T13:10:54.950Z,15.32
2022-11-24T13:13:15.429Z,7.60
2022-11-24T13:16:20.559Z,9.25
2022-11-24T13:18:47.317Z,8.05
2022-11-24T13:21:51.553Z,13.68
2022-11-24T13:24:19.139Z,11.43
2022-11-24T13:27:16.775Z,13.02
2022-11-24T13:29:47.936Z,14.23
2022-11-24T13:32:21.004Z,11.18
2022-11-24T13:34:49.616Z,11.90
2022-11-24T13:37:28.730Z,11.57
2022-11-24T13:40:14.179Z,12.07
2022-11-24T13:43:19.207Z,10.05
2022-11-24T13:45:45.608Z,10.40
2022-11-24T13:48:21.989Z,9.32
2022-11-24T13:50:53.166Z,11.38
2022-11-24T13:53:36.325Z,12.80
2022-11-24T13:56:02.697Z,12.52
2022-11-24T13:58:38.837Z,11.77
2022-11-24T14:01:22.151Z,10.63
2022-11-24T14:04:42.931Z,13.20
2022-11-24T14:07:07.925Z,10.40
2022-11-24T14:09:40.720Z,8.95
2022-11-24T14:12:24.169Z,9.73
2022-11-24T14:14:52.314Z,11.68
2022-11-24T14:17:22.562Z,11.55
2022-11-24T14:19:51.479Z,12.68
2022-11-24T14:22:20.735Z,9.32
2022-11-24T14:27:26.121Z,13.02
2022-11-24T14:29:54.716Z,10.95
2022-11-24T14:32:21.926Z,11.63
2022-11-24T14:34:48.474Z,10.15
2022-11-24T14:37:14.941Z,11.25
2022-11-24T14:39:42.208Z,12.35
2022-11-24T14:42:27.479Z,13.60
2022-11-24T14:45:02.787Z,12.00
2022-11-24T14:47:36.282Z,9.50
2022-11-24T14:50:10.313Z,12.38
2022-11-24T14:52:43.886Z,16.00
2022-11-24T14:55:24.349Z,14.85
2022-11-24T14:57:50.898Z,12.73
2022-11-24T15:00:30.821Z,13.27
2022-11-24T15:03:17.464Z,13.55
2022-11-24T15:05:55.544Z,10.43
2022-11-24T15:08:24.168Z,11.30
2022-11-24T15:11:00.302Z,12.52
2022-11-24T15:13:27.473Z,13.07
2022-11-24T15:16:06.651Z,13.02
2022-11-24T15:18:41.909Z,12.45
2022-11-24T15:21:11.691Z,11.50
2022-11-24T15:23:41.889Z,14.20
2022-11-24T15:26:11.025Z,10.00
2022-11-24T15:31:11.393Z,10.45
2022-11-24T15:33:38.326Z,11.35
2022-11-24T15:36:05.031Z,14.10
2022-11-24T15:38:31.504Z,9.38
2022-11-24T15:40:59.567Z,12.32
2022-11-24T15:43:34.605Z,10.68
2022-11-24T15:46:02.189Z,8.95
2022-11-24T15:48:29.085Z,13.32
2022-11-24T15:50:56.693Z,11.30
2022-11-24T15:53:39.072Z,12.30
2022-11-24T15:56:07.729Z,12.57
2022-11-24T15:58:34.558Z,17.83
2022-11-24T16:01:01.070Z,15.98
2022-11-24T16:06:22.016Z,14.52
2022-11-24T16:08:50.501Z,12.25
2022-11-24T16:11:16.896Z,19.70
2022-11-24T16:13:46.994Z,13.13
2022-11-24T16:16:18.571Z,15.73
2022-11-24T16:18:45.359Z,13.98
2022-11-24T16:21:11.795Z,19.98
2022-11-24T16:23:38.223Z,21.25
2022-11-24T16:26:05.403Z,13.73
2022-11-24T16:28:32.199Z,11.77
2022-11-24T16:30:58.748Z,14.20
2022-11-24T16:33:25.285Z,11.95
2022-11-24T16:35:51.710Z,10.65
2022-11-24T16:38:19.332Z,19.45
2022-11-24T16:40:54.239Z,13.13
2022-11-24T16:43:20.755Z,15.18
2022-11-24T16:45:54.276Z,11.00
2022-11-24T16:48:20.761Z,13.90
2022-11-24T16:50:47.256Z,10.18
2022-11-24T16:53:13.739Z,15.85
2022-11-24T16:55:40.160Z,13.57
2022-11-24T16:58:06.603Z,12.27
2022-11-24T17:00:33.000Z,13.75
2022-11-24T17:02:59.404Z,13.90
2022-11-24T17:05:25.820Z,17.13
2022-11-24T17:07:52.541Z,13.35
2022-11-24T17:10:19.264Z,17.13
2022-11-24T17:12:45.747Z,13.18
2022-11-24T17:18:23.625Z,11.85
2022-11-24T17:20:45.114Z,13.30
2022-11-24T17:23:11.571Z,18.25
2022-11-24T17:25:37.978Z,12.13
2022-11-24T17:28:04.596Z,12.82
2022-11-24T17:30:31.001Z,13.40
2022-11-24T17:32:57.397Z,10.45
2022-11-24T17:35:23.827Z,14.77
2022-11-24T17:37:50.230Z,15.23
2022-11-24T17:40:34.587Z,13.18
2022-11-24T17:43:01.535Z,16.80
2022-11-24T17:45:28.920Z,18.63
2022-11-24T17:47:56.499Z,12.73
2022-11-24T17:50:26.029Z,12.57
2022-11-24T17:52:53.702Z,14.20
2022-11-24T17:55:20.170Z,13.02
2022-11-24T17:57:46.597Z,14.07
2022-11-24T18:00:13.700Z,15.05
2022-11-24T18:02:40.155Z,14.68
2022-11-24T18:05:06.973Z,15.05
2022-11-24T18:07:35.906Z,16.83
2022-11-24T18:10:02.382Z,15.27
2022-11-24T18:12:28.817Z,22.30
2022-11-24T18:14:55.376Z,14.13
2022-11-24T18:17:21.888Z,15.18
2022-11-24T18:19:48.328Z,10.40
2022-11-24T18:22:14.782Z,18.00
2022-11-24T18:24:44.203Z,10.60
2022-11-24T18:27:11.064Z,14.63
2022-11-24T18:29:38.512Z,15.35
2022-11-24T18:32:06.693Z,15.32
2022-11-24T18:34:33.432Z,15.13
2022-11-24T18:37:00.150Z,13.55
2022-11-24T18:39:28.272Z,12.20
2022-11-24T18:41:54.718Z,16.25
2022-11-24T18:44:21.267Z,13.25
2022-11-24T18:46:48.865Z,15.18
2022-11-24T18:49:15.303Z,13.05
2022-11-24T18:51:41.699Z,18.73
2022-11-24T18:54:08.209Z,15.80
2022-11-24T18:56:34.697Z,11.00
2022-11-24T18:59:01.222Z,14.50
2022-11-24T19:01:28.581Z,8.70
2022-11-24T19:03:57.207Z,12.23
2022-11-24T19:06:28.821Z,13.13
2022-11-24T19:08:55.820Z,15.82
2022-11-24T19:11:28.159Z,12.20
2022-11-24T19:13:55.745Z,11.25
2022-11-24T19:16:22.940Z,17.90
2022-11-24T19:18:53.992Z,11.20
2022-11-24T19:21:21.329Z,11.15
2022-11-24T19:23:47.746Z,12.70
2022-11-24T19:26:14.735Z,15.43
2022-11-24T19:28:41.150Z,13.27
2022-11-24T19:31:10.250Z,15.40
2022-11-24T19:33:36.733Z,13.52
2022-11-24T19:36:22.485Z,10.30
2022-11-24T19:38:51.226Z,11.00
2022-11-24T19:41:21.460Z,15.38
2022-11-24T19:43:48.359Z,15.63
2022-11-24T19:46:18.341Z,14.93
2022-11-24T19:48:54.434Z,10.45
2022-11-24T19:51:23.133Z,14.73
2022-11-24T19:53:49.570Z,13.77
2022-11-24T19:56:21.542Z,10.73
2022-11-24T19:58:49.105Z,14.40
2022-11-24T20:01:21.595Z,15.40
2022-11-24T20:03:58.843Z,13.35
2022-11-24T20:06:28.050Z,11.45
2022-11-24T20:08:54.599Z,11.35
2022-11-24T20:11:21.609Z,10.50
2022-11-24T20:13:49.695Z,11.50
2022-11-24T20:16:18.175Z,9.52
2022-11-24T20:18:46.368Z,11.40
2022-11-24T20:21:19.678Z,12.15
2022-11-24T20:23:52.393Z,8.00
2022-11-24T20:26:20.733Z,9.88
2022-11-24T20:28:47.249Z,9.07
2022-11-24T20:31:20.631Z,12.48
2022-11-24T20:33:47.449Z,9.38
2022-11-24T20:36:18.606Z,10.70
2022-11-24T20:38:46.354Z,8.82
2022-11-24T20:41:18.110Z,11.57
2022-11-24T20:43:45.378Z,8.30
2022-11-24T20:46:14.746Z,13.75
2022-11-24T20:48:41.287Z,10.30
2022-11-24T20:51:23.107Z,16.30
2022-11-24T20:53:51.148Z,11.80
2022-11-24T20:56:23.105Z,12.05
2022-11-24T20:58:52.972Z,8.68
2022-11-24T21:01:21.981Z,10.20
2022-11-24T21:03:53.038Z,10.27
2022-11-24T21:06:19.450Z,13.10
2022-11-24T21:08:45.884Z,12.13
2022-11-24T21:11:13.764Z,14.68
2022-11-24T21:13:42.165Z,9.35
2022-11-24T21:16:12.824Z,10.77
2022-11-24T21:18:39.313Z,12.27
2022-11-24T21:21:05.971Z,12.23
2022-11-24T21:23:32.759Z,8.07
2022-11-24T21:26:05.632Z,9.27
2022-11-24T21:28:33.673Z,10.77
2022-11-24T21:31:04.969Z,11.48
2022-11-24T21:33:31.586Z,8.13
2022-11-24T21:36:05.462Z,10.48
2022-11-24T21:38:31.926Z,9.38
2022-11-24T21:41:06.342Z,10.25
2022-11-24T21:43:33.275Z,9.45
2022-11-24T21:46:05.321Z,12.18
2022-11-24T21:48:32.732Z,10.82
2022-11-24T21:51:03.402Z,9.93
2022-11-24T21:53:31.745Z,10.27
2022-11-24T21:56:00.318Z,10.15
2022-11-24T21:58:27.557Z,9.68
2022-11-24T22:00:54.934Z,10.73
2022-11-24T22:03:21.560Z,8.00
2022-11-24T22:05:58.894Z,8.50
2022-11-24T22:08:27.362Z,8.32
2022-11-24T22:10:54.048Z,9.23
2022-11-24T22:13:20.485Z,11.38
2022-11-24T22:15:46.922Z,14.43
2022-11-24T22:18:13.381Z,8.98
2022-11-24T22:20:39.877Z,12.45
2022-11-24T22:23:06.295Z,10.43
2022-11-24T22:25:33.492Z,8.55
2022-11-24T22:27:59.936Z,11.40
2022-11-24T22:30:26.383Z,16.85
2022-11-24T22:32:53.081Z,11.52
2022-11-24T22:35:19.589Z,12.13
2022-11-24T22:37:46.039Z,14.90
2022-11-24T22:40:12.526Z,12.18
2022-11-24T22:42:38.934Z,13.32
2022-11-24T22:45:05.978Z,14.55
2022-11-24T22:47:32.779Z,10.40
2022-11-24T22:49:59.310Z,9.02
2022-11-24T22:52:25.817Z,12.90
2022-11-24T22:54:52.284Z,10.95
2022-11-24T22:57:18.779Z,10.38
2022-11-24T22:59:45.197Z,15.05
2022-11-24T23:02:11.607Z,13.77
2022-11-24T23:04:38.270Z,15.52
2022-11-24T23:07:04.745Z,13.82
2022-11-24T23:09:31.217Z,13.35
2022-11-24T23:11:57.646Z,12.15
2022-11-24T23:14:24.137Z,12.10
2022-11-24T23:16:50.734Z,11.80
2022-11-24T23:19:17.808Z,10.48
2022-11-24T23:21:44.404Z,13.45
2022-11-24T23:24:11.486Z,11.90
2022-11-24T23:26:39.880Z,12.18
2022-11-24T23:29:07.183Z,12.15
2022-11-24T23:31:33.701Z,10.82
2022-11-24T23:34:02.159Z,19.38
2022-11-24T23:36:29.620Z,7.70
2022-11-24T23:38:56.546Z,18.70
2022-11-24T23:41:25.440Z,17.80
2022-11-24T23:43:52.363Z,15.50
2022-11-24T23:46:20.871Z,12.57
2022-11-24T23:48:48.020Z,11.02
2022-11-24T23:51:18.735Z,9.70
2022-11-24T23:53:45.520Z,15.57
2022-11-24T23:56:14.125Z,15.07
2022-11-24T23:58:40.808Z,11.93
